createdAt,value
2019-06-10T00:00:15.523Z,6.83
2019-06-10T00:02:41.374Z,10.20
2019-06-10T00:05:11.065Z,3.83
2019-06-10T00:07:41.090Z,2.43
2019-06-10T00:10:10.852Z,2.07
2019-06-10T00:12:41.820Z,1.83
2019-06-10T00:15:10.911Z,2.00
2019-06-10T00:17:53.143Z,1.60
2019-06-10T00:20:11.127Z,1.40
2019-06-10T00:22:40.910Z,2.17
2019-06-10T00:25:11.993Z,2.30
2019-06-10T00:27:42.055Z,2.17
2019-06-10T00:30:12.237Z,2.33
2019-06-10T00:32:41.268Z,2.20
2019-06-10T00:35:12.243Z,2.20
2019-06-10T00:37:41.876Z,2.17
2019-06-10T00:40:14.270Z,1.80
2019-06-10T00:42:41.804Z,1.70
2019-06-10T00:45:17.483Z,1.50
2019-06-10T00:47:41.433Z,1.60
2019-06-10T00:50:14.336Z,1.37
2019-06-10T00:52:45.078Z,1.77
2019-06-10T00:55:12.541Z,1.93
2019-06-10T00:57:41.927Z,1.50
2019-06-10T01:00:23.197Z,1.83
2019-06-10T01:02:41.301Z,1.60
2019-06-10T01:05:12.073Z,1.77
2019-06-10T01:07:41.362Z,1.47
2019-06-10T01:10:12.893Z,1.70
2019-06-10T01:12:41.479Z,1.87
2019-06-10T01:15:12.543Z,1.50
2019-06-10T01:17:41.766Z,2.03
2019-06-10T01:20:12.826Z,1.50
2019-06-10T01:22:41.039Z,1.80
2019-06-10T01:25:12.337Z,1.50
2019-06-10T01:27:40.983Z,1.73
2019-06-10T01:30:18.836Z,1.83
2019-06-10T01:32:41.613Z,1.90
2019-06-10T01:35:11.568Z,1.90
2019-06-10T01:37:41.382Z,2.17
2019-06-10T01:40:14.513Z,2.23
2019-06-10T01:42:41.401Z,1.80
2019-06-10T01:45:12.469Z,1.80
2019-06-10T01:47:41.675Z,1.80
2019-06-10T01:50:12.515Z,1.80
2019-06-10T01:52:41.096Z,2.47
2019-06-10T01:55:13.514Z,2.00
2019-06-10T01:57:41.311Z,2.10
2019-06-10T02:00:15.540Z,1.47
2019-06-10T02:02:44.764Z,1.50
2019-06-10T02:05:14.582Z,2.10
2019-06-10T02:07:42.229Z,1.77
2019-06-10T02:10:12.421Z,1.60
2019-06-10T02:12:41.630Z,2.10
2019-06-10T02:15:12.555Z,1.43
2019-06-10T02:17:41.704Z,1.87
2019-06-10T02:20:14.842Z,1.83
2019-06-10T02:22:41.287Z,1.80
2019-06-10T02:25:10.979Z,2.00
2019-06-10T02:27:41.485Z,2.30
2019-06-10T02:30:22.197Z,2.47
2019-06-10T02:32:42.825Z,1.80
2019-06-10T02:35:23.082Z,2.00
2019-06-10T02:37:44.419Z,3.17
2019-06-10T02:40:16.605Z,1.87
2019-06-10T02:42:43.863Z,2.20
2019-06-10T02:45:15.175Z,3.17
2019-06-10T02:47:44.259Z,1.40
2019-06-10T02:50:16.322Z,2.30
2019-06-10T02:52:44.646Z,2.43
2019-06-10T02:55:15.662Z,2.17
2019-06-10T02:57:44.696Z,2.40
2019-06-10T03:00:20.730Z,1.70
2019-06-10T03:02:45.395Z,1.70
2019-06-10T03:05:18.954Z,2.10
2019-06-10T03:07:45.818Z,3.20
2019-06-10T03:10:16.084Z,2.03
2019-06-10T03:12:44.630Z,1.60
2019-06-10T03:15:13.237Z,1.83
2019-06-10T03:17:42.976Z,2.10
2019-06-10T03:20:12.371Z,2.07
2019-06-10T03:22:42.353Z,2.27
2019-06-10T03:25:13.170Z,1.73
2019-06-10T03:27:42.450Z,2.10
2019-06-10T03:30:17.191Z,1.93
2019-06-10T03:32:47.033Z,1.93
2019-06-10T03:35:13.169Z,2.17
2019-06-10T03:37:42.498Z,2.23
2019-06-10T03:40:13.096Z,2.20
2019-06-10T03:42:42.793Z,1.80
2019-06-10T03:45:12.634Z,1.47
2019-06-10T03:47:42.750Z,1.70
2019-06-10T03:50:13.324Z,1.17
2019-06-10T03:52:43.082Z,1.87
2019-06-10T03:55:12.477Z,2.30
2019-06-10T03:57:42.319Z,1.83
2019-06-10T04:00:13.892Z,2.10
2019-06-10T04:02:43.053Z,1.83
2019-06-10T04:05:13.290Z,2.07
2019-06-10T04:07:42.718Z,2.10
2019-06-10T04:10:12.552Z,2.37
2019-06-10T04:12:43.256Z,2.40
2019-06-10T04:15:12.408Z,2.87
2019-06-10T04:17:42.787Z,2.00
2019-06-10T04:20:14.930Z,1.60
2019-06-10T04:22:41.682Z,2.07
2019-06-10T04:25:12.154Z,1.70
2019-06-10T04:27:42.484Z,1.70
2019-06-10T04:30:12.810Z,2.07
2019-06-10T04:32:42.947Z,2.10
2019-06-10T04:35:12.668Z,2.70
2019-06-10T04:37:42.896Z,2.40
2019-06-10T04:40:13.415Z,2.07
2019-06-10T04:42:43.525Z,1.90
2019-06-10T04:45:12.361Z,2.27
2019-06-10T04:47:43.020Z,2.30
2019-06-10T04:50:23.950Z,1.60
2019-06-10T04:52:43.055Z,2.20
2019-06-10T04:55:12.809Z,2.37
2019-06-10T04:57:43.045Z,2.40
2019-06-10T05:00:14.810Z,2.43
2019-06-10T05:02:43.495Z,1.57
2019-06-10T05:05:13.060Z,2.10
2019-06-10T05:07:42.793Z,1.60
2019-06-10T05:10:12.658Z,1.70
2019-06-10T05:12:43.344Z,2.17
2019-06-10T05:15:12.563Z,2.47
2019-06-10T05:17:43.623Z,2.30
2019-06-10T05:20:12.520Z,2.03
2019-06-10T05:22:42.470Z,2.00
2019-06-10T05:25:12.830Z,2.57
2019-06-10T05:27:42.900Z,2.23
2019-06-10T05:30:12.513Z,2.43
2019-06-10T05:32:43.254Z,2.33
2019-06-10T05:35:12.467Z,1.83
2019-06-10T05:37:42.366Z,2.10
2019-06-10T05:40:12.798Z,2.17
2019-06-10T05:42:42.606Z,2.30
2019-06-10T05:45:12.275Z,2.10
2019-06-10T05:47:42.661Z,2.57
2019-06-10T05:50:12.928Z,1.77
2019-06-10T05:52:42.753Z,2.20
2019-06-10T05:55:12.270Z,2.13
2019-06-10T05:57:42.858Z,2.50
2019-06-10T06:00:14.808Z,2.60
2019-06-10T06:02:43.257Z,2.27
2019-06-10T06:05:12.824Z,2.27
2019-06-10T06:07:42.308Z,2.40
2019-06-10T06:10:13.052Z,1.83
2019-06-10T06:12:42.469Z,2.30
2019-06-10T06:15:12.925Z,2.60
2019-06-10T06:17:43.237Z,1.80
2019-06-10T06:20:13.320Z,2.47
2019-06-10T06:22:42.869Z,2.03
2019-06-10T06:25:15.108Z,2.70
2019-06-10T06:27:42.286Z,2.07
2019-06-10T06:30:18.246Z,2.30
2019-06-10T06:32:43.603Z,1.53
2019-06-10T06:35:12.775Z,1.90
2019-06-10T06:37:42.890Z,2.33
2019-06-10T06:40:13.482Z,1.97
2019-06-10T06:42:43.399Z,2.00
2019-06-10T06:45:12.713Z,1.90
2019-06-10T06:47:43.711Z,2.00
2019-06-10T06:50:13.430Z,1.87
2019-06-10T06:53:15.689Z,1.90
2019-06-10T06:55:12.976Z,2.13
2019-06-10T06:57:43.319Z,2.30
2019-06-10T07:00:37.398Z,1.80
2019-06-10T07:02:43.498Z,2.60
2019-06-10T07:05:12.716Z,2.33
2019-06-10T07:07:43.274Z,2.43
2019-06-10T07:10:12.223Z,2.17
2019-06-10T07:12:43.870Z,2.40
2019-06-10T07:15:13.135Z,2.30
2019-06-10T07:17:45.676Z,2.00
2019-06-10T07:20:12.805Z,1.87
2019-06-10T07:22:42.759Z,2.07
2019-06-10T07:25:12.483Z,2.10
2019-06-10T07:27:45.097Z,1.67
2019-06-10T07:30:14.853Z,2.10
2019-06-10T07:32:46.591Z,2.00
2019-06-10T07:35:12.962Z,2.40
2019-06-10T07:37:44.421Z,2.20
2019-06-10T07:40:12.994Z,2.27
2019-06-10T07:42:43.771Z,1.90
2019-06-10T07:45:13.137Z,2.30
2019-06-10T07:47:43.883Z,2.13
2019-06-10T07:50:12.689Z,1.33
2019-06-10T07:52:45.010Z,2.10
2019-06-10T07:55:12.880Z,1.17
2019-06-10T07:57:43.961Z,2.20
2019-06-10T08:00:12.780Z,1.90
2019-06-10T08:02:44.304Z,2.23
2019-06-10T08:05:12.869Z,2.17
2019-06-10T08:07:45.112Z,1.70
2019-06-10T08:10:13.242Z,2.00
2019-06-10T08:12:46.253Z,2.03
2019-06-10T08:15:12.737Z,2.13
2019-06-10T08:17:42.901Z,1.50
2019-06-10T08:20:13.323Z,2.40
2019-06-10T08:22:50.767Z,1.37
2019-06-10T08:25:13.317Z,2.00
2019-06-10T08:27:45.417Z,2.03
2019-06-10T08:30:22.243Z,2.53
2019-06-10T08:32:46.600Z,2.17
2019-06-10T08:35:13.246Z,2.77
2019-06-10T08:37:43.197Z,1.63
2019-06-10T08:40:12.467Z,2.93
2019-06-10T08:42:43.734Z,1.80
2019-06-10T08:45:12.543Z,2.67
2019-06-10T08:47:44.322Z,1.70
2019-06-10T08:50:12.979Z,2.00
2019-06-10T08:52:58.865Z,1.90
2019-06-10T08:55:12.667Z,2.03
2019-06-10T08:57:43.658Z,2.43
2019-06-10T09:00:16.252Z,2.33
2019-06-10T09:02:46.804Z,2.50
2019-06-10T09:05:23.044Z,2.20
2019-06-10T09:07:54.320Z,1.90
2019-06-10T09:10:22.739Z,2.50
2019-06-10T09:12:54.551Z,2.57
2019-06-10T09:15:23.630Z,1.70
2019-06-10T09:17:55.790Z,2.20
2019-06-10T09:20:23.147Z,2.23
2019-06-10T09:23:13.319Z,2.20
2019-06-10T09:25:22.677Z,2.10
2019-06-10T09:27:54.569Z,2.80
2019-06-10T09:30:22.688Z,2.43
2019-06-10T09:32:56.112Z,2.30
2019-06-10T09:35:24.046Z,2.50
2019-06-10T09:37:55.679Z,2.40
2019-06-10T09:40:23.706Z,2.80
2019-06-10T09:42:55.070Z,2.60
2019-06-10T09:45:23.048Z,2.80
2019-06-10T09:47:59.423Z,2.43
2019-06-10T09:50:25.048Z,1.87
2019-06-10T09:52:57.041Z,2.63
2019-06-10T09:55:26.768Z,1.90
2019-06-10T09:57:59.744Z,2.17
2019-06-10T10:00:45.282Z,2.70
2019-06-10T10:03:12.430Z,1.73
2019-06-10T10:05:52.584Z,1.93
2019-06-10T10:08:12.718Z,2.10
2019-06-10T10:10:45.966Z,2.30
2019-06-10T10:13:13.066Z,1.67
2019-06-10T10:15:41.951Z,1.70
2019-06-10T10:18:13.442Z,2.07
2019-06-10T10:20:46.260Z,2.03
2019-06-10T10:23:13.763Z,2.27
2019-06-10T10:25:44.940Z,2.10
2019-06-10T10:28:13.437Z,1.97
2019-06-10T10:30:44.966Z,1.97
2019-06-10T10:33:12.943Z,2.90
2019-06-10T10:35:43.163Z,1.97
2019-06-10T10:38:14.335Z,1.90
2019-06-10T10:40:44.001Z,2.97
2019-06-10T10:43:25.155Z,2.30
2019-06-10T10:45:45.311Z,2.20
2019-06-10T10:48:14.059Z,1.67
2019-06-10T10:50:43.893Z,1.97
2019-06-10T10:53:12.976Z,2.03
2019-06-10T10:55:42.493Z,1.67
2019-06-10T10:58:12.843Z,2.23
2019-06-10T11:00:45.488Z,2.20
2019-06-10T11:03:13.655Z,1.93
2019-06-10T11:05:46.247Z,2.40
2019-06-10T11:08:13.613Z,1.37
2019-06-10T11:10:45.700Z,2.80
2019-06-10T11:13:13.910Z,2.40
2019-06-10T11:15:43.574Z,2.37
2019-06-10T11:18:12.822Z,2.90
2019-06-10T11:20:41.411Z,2.50
2019-06-10T11:23:11.943Z,2.07
2019-06-10T11:25:40.329Z,2.00
2019-06-10T11:28:09.008Z,2.43
2019-06-10T11:30:37.537Z,2.33
2019-06-10T11:33:06.055Z,2.30
2019-06-10T11:35:34.549Z,2.50
2019-06-10T11:38:03.432Z,2.07
2019-06-10T11:40:34.210Z,2.40
2019-06-10T11:43:02.068Z,2.40
2019-06-10T11:45:32.708Z,1.97
2019-06-10T11:48:02.486Z,1.80
2019-06-10T11:50:33.452Z,1.90
2019-06-10T11:53:04.218Z,1.60
2019-06-10T11:55:33.278Z,1.90
2019-06-10T11:58:01.821Z,2.30
2019-06-10T12:00:33.121Z,2.20
2019-06-10T12:03:02.996Z,2.60
2019-06-10T12:05:32.704Z,2.50
2019-06-10T12:08:02.724Z,2.67
2019-06-10T12:10:33.016Z,2.47
2019-06-10T12:13:06.930Z,2.30
2019-06-10T12:15:59.354Z,2.80
2019-06-10T12:18:07.873Z,2.70
2019-06-10T12:20:33.389Z,2.67
2019-06-10T12:23:04.554Z,2.20
2019-06-10T12:25:38.830Z,2.57
2019-06-10T12:28:07.073Z,2.53
2019-06-10T12:30:34.380Z,2.30
2019-06-10T12:33:05.602Z,2.40
2019-06-10T12:35:33.442Z,2.67
2019-06-10T12:38:05.962Z,2.77
2019-06-10T12:40:32.463Z,2.10
2019-06-10T12:43:04.688Z,2.30
2019-06-10T12:45:32.632Z,1.93
2019-06-10T12:48:05.077Z,1.87
2019-06-10T12:50:31.404Z,2.53
2019-06-10T12:53:01.408Z,2.20
2019-06-10T12:55:39.241Z,2.23
2019-06-10T12:58:03.013Z,2.63
2019-06-10T13:00:33.630Z,1.90
2019-06-10T13:03:04.071Z,1.93
2019-06-10T13:05:33.225Z,2.80
2019-06-10T13:08:03.910Z,1.87
2019-06-10T13:10:38.601Z,2.47
2019-06-10T13:13:09.090Z,2.70
2019-06-10T13:15:37.524Z,2.17
2019-06-10T13:18:08.655Z,2.00
2019-06-10T13:20:36.546Z,2.30
2019-06-10T13:23:17.208Z,2.73
2019-06-10T13:25:50.161Z,2.37
2019-06-10T13:28:06.783Z,2.07
2019-06-10T13:30:35.918Z,2.60
2019-06-10T13:33:10.505Z,2.73
2019-06-10T13:35:36.130Z,2.10
2019-06-10T13:38:06.866Z,2.33
2019-06-10T13:40:34.701Z,2.63
2019-06-10T13:43:03.928Z,2.37
2019-06-10T13:45:33.250Z,2.50
2019-06-10T13:48:05.884Z,2.63
2019-06-10T13:50:32.858Z,2.50
2019-06-10T13:53:03.744Z,3.30
2019-06-10T13:55:32.846Z,2.53
2019-06-10T13:58:03.942Z,2.50
2019-06-10T14:00:42.783Z,2.50
2019-06-10T14:03:05.116Z,3.13
2019-06-10T14:05:34.443Z,2.50
2019-06-10T14:08:05.396Z,2.53
2019-06-10T14:10:32.642Z,2.90
2019-06-10T14:13:03.540Z,3.37
2019-06-10T14:15:32.997Z,3.30
2019-06-10T14:18:04.032Z,2.60
2019-06-10T14:20:32.574Z,3.83
2019-06-10T14:23:02.488Z,3.03
2019-06-10T14:25:33.061Z,3.10
2019-06-10T14:28:04.311Z,3.60
2019-06-10T14:30:32.340Z,3.50
2019-06-10T14:33:02.801Z,2.67
2019-06-10T14:35:33.134Z,3.03
2019-06-10T14:38:03.511Z,3.30
2019-06-10T14:40:32.431Z,2.87
2019-06-10T14:43:01.121Z,3.33
2019-06-10T14:45:29.611Z,2.80
2019-06-10T14:47:58.881Z,3.90
2019-06-10T14:50:28.154Z,3.77
2019-06-10T14:52:56.591Z,3.73
2019-06-10T14:55:25.020Z,4.13
2019-06-10T14:57:53.536Z,3.03
2019-06-10T15:00:23.630Z,4.20
2019-06-10T15:02:53.801Z,4.00
2019-06-10T15:05:23.273Z,3.60
2019-06-10T15:07:52.846Z,3.63
2019-06-10T15:10:23.336Z,3.40
2019-06-10T15:12:52.919Z,4.07
2019-06-10T15:15:23.618Z,3.10
2019-06-10T15:17:52.614Z,3.83
2019-06-10T15:20:22.714Z,3.27
2019-06-10T15:22:52.694Z,4.10
2019-06-10T15:25:27.456Z,3.77
2019-06-10T15:27:52.734Z,3.60
2019-06-10T15:30:26.614Z,3.67
2019-06-10T15:32:52.440Z,3.30
2019-06-10T15:35:24.337Z,3.07
2019-06-10T15:37:52.735Z,3.60
2019-06-10T15:40:23.064Z,3.63
2019-06-10T15:42:53.331Z,3.30
2019-06-10T15:45:22.428Z,2.80
2019-06-10T15:47:53.092Z,3.53
2019-06-10T15:50:23.834Z,4.30
2019-06-10T15:52:52.406Z,3.00
2019-06-10T15:55:47.772Z,3.37
2019-06-10T15:57:54.172Z,3.67
2019-06-10T16:00:28.814Z,3.70
2019-06-10T16:02:52.656Z,2.80
2019-06-10T16:05:23.876Z,3.67
2019-06-10T16:07:52.984Z,3.70
2019-06-10T16:10:26.663Z,3.70
2019-06-10T16:12:52.892Z,3.30
2019-06-10T16:15:26.110Z,3.80
2019-06-10T16:17:53.561Z,3.17
2019-06-10T16:20:23.473Z,3.63
2019-06-10T16:22:52.429Z,2.53
2019-06-10T16:25:25.177Z,3.67
2019-06-10T16:27:54.317Z,3.10
2019-06-10T16:30:23.221Z,3.10
2019-06-10T16:32:52.963Z,3.40
2019-06-10T16:35:23.883Z,3.10
2019-06-10T16:37:55.796Z,3.27
2019-06-10T16:40:24.251Z,3.27
2019-06-10T16:42:53.382Z,2.90
2019-06-10T16:45:27.704Z,3.20
2019-06-10T16:47:53.163Z,2.90
2019-06-10T16:50:23.812Z,2.80
2019-06-10T16:52:53.553Z,3.27
2019-06-10T16:55:24.194Z,3.63
2019-06-10T16:57:59.192Z,3.20
2019-06-10T17:00:25.779Z,2.80
2019-06-10T17:02:53.314Z,3.77
2019-06-10T17:05:25.125Z,3.30
2019-06-10T17:07:52.711Z,2.90
2019-06-10T17:10:21.904Z,2.93
2019-06-10T17:13:03.102Z,3.60
2019-06-10T17:15:31.665Z,2.73
2019-06-10T17:18:02.664Z,2.77
2019-06-10T17:20:30.427Z,2.40
2019-06-10T17:23:03.115Z,2.60
2019-06-10T17:25:33.722Z,2.50
2019-06-10T17:28:15.164Z,2.70
2019-06-10T17:30:30.989Z,2.93
2019-06-10T17:32:59.486Z,2.80
2019-06-10T17:35:28.614Z,2.57
2019-06-10T17:37:58.305Z,4.00
2019-06-10T17:40:27.699Z,3.10
2019-06-10T17:42:57.246Z,2.47
2019-06-10T17:45:27.500Z,2.60
2019-06-10T17:47:55.906Z,3.20
2019-06-10T17:50:25.288Z,2.67
2019-06-10T17:52:54.647Z,3.00
2019-06-10T17:55:25.974Z,2.70
2019-06-10T17:57:53.391Z,2.00
2019-06-10T18:00:24.353Z,2.70
2019-06-10T18:02:53.582Z,2.67
2019-06-10T18:05:23.732Z,3.00
2019-06-10T18:07:52.817Z,2.57
2019-06-10T18:10:22.432Z,2.73
2019-06-10T18:12:52.751Z,2.10
2019-06-10T18:15:22.211Z,4.10
2019-06-10T18:17:52.184Z,4.30
2019-06-10T18:20:22.489Z,3.00
2019-06-10T18:22:52.938Z,3.30
2019-06-10T18:25:22.977Z,2.70
2019-06-10T18:27:53.361Z,3.83
2019-06-10T18:30:22.352Z,2.57
2019-06-10T18:32:52.642Z,3.70
2019-06-10T18:35:22.544Z,2.80
2019-06-10T18:37:52.880Z,2.20
2019-06-10T18:40:21.836Z,3.40
2019-06-10T18:42:52.337Z,3.63
2019-06-10T18:45:22.461Z,3.43
2019-06-10T18:47:52.964Z,2.33
2019-06-10T18:50:25.340Z,3.63
2019-06-10T18:52:54.217Z,3.60
2019-06-10T18:55:25.557Z,2.73
2019-06-10T18:57:54.491Z,2.90
2019-06-10T19:00:23.681Z,3.60
2019-06-10T19:03:08.640Z,3.73
2019-06-10T19:05:23.349Z,2.97
2019-06-10T19:07:52.981Z,2.87
2019-06-10T19:10:23.177Z,3.07
2019-06-10T19:12:53.174Z,2.70
2019-06-10T19:15:23.670Z,3.37
2019-06-10T19:17:53.687Z,4.90
2019-06-10T19:20:24.654Z,2.60
2019-06-10T19:22:54.014Z,2.47
2019-06-10T19:25:23.470Z,3.17
2019-06-10T19:27:53.088Z,2.80
2019-06-10T19:30:23.265Z,2.27
2019-06-10T19:32:52.811Z,2.60
2019-06-10T19:35:22.362Z,1.80
2019-06-10T19:37:51.518Z,2.50
2019-06-10T19:40:22.734Z,2.80
2019-06-10T19:42:52.537Z,3.30
2019-06-10T19:45:22.972Z,1.87
2019-06-10T19:47:52.403Z,2.27
2019-06-10T19:50:21.360Z,2.07
2019-06-10T19:52:51.986Z,3.00
2019-06-10T19:55:23.315Z,2.37
2019-06-10T19:57:51.784Z,2.50
2019-06-10T20:00:22.189Z,2.50
2019-06-10T20:02:52.432Z,2.30
2019-06-10T20:05:22.063Z,2.23
2019-06-10T20:07:53.306Z,2.57
2019-06-10T20:10:23.051Z,3.13
2019-06-10T20:12:53.637Z,2.70
2019-06-10T20:15:26.375Z,2.33
2019-06-10T20:17:55.360Z,2.47
2019-06-10T20:20:24.293Z,2.13
2019-06-10T20:22:56.596Z,2.33
2019-06-10T20:25:23.732Z,2.37
2019-06-10T20:27:52.569Z,3.20
2019-06-10T20:30:28.282Z,1.77
2019-06-10T20:32:55.796Z,2.80
2019-06-10T20:35:23.282Z,2.50
2019-06-10T20:37:53.818Z,2.00
2019-06-10T20:40:22.761Z,2.73
2019-06-10T20:42:51.356Z,2.27
2019-06-10T20:45:22.954Z,2.37
2019-06-10T20:47:53.107Z,2.10
2019-06-10T20:50:21.164Z,2.60
2019-06-10T20:52:49.676Z,2.00
2019-06-10T20:55:18.172Z,2.53
2019-06-10T20:57:57.646Z,1.80
2019-06-10T21:00:34.754Z,2.20
2019-06-10T21:03:03.776Z,1.90
2019-06-10T21:05:33.859Z,2.10
2019-06-10T21:08:05.058Z,1.90
2019-06-10T21:10:39.775Z,2.87
2019-06-10T21:13:08.424Z,2.50
2019-06-10T21:15:37.325Z,1.97
2019-06-10T21:18:06.525Z,2.47
2019-06-10T21:20:35.062Z,1.67
2019-06-10T21:23:03.841Z,2.67
2019-06-10T21:25:32.861Z,2.10
2019-06-10T21:28:03.242Z,2.10
2019-06-10T21:30:40.682Z,2.60
2019-06-10T21:33:03.516Z,2.30
2019-06-10T21:35:33.801Z,2.70
2019-06-10T21:38:02.296Z,2.17
2019-06-10T21:40:33.073Z,2.17
2019-06-10T21:43:02.894Z,2.57
2019-06-10T21:45:32.617Z,2.10
2019-06-10T21:48:02.208Z,2.63
2019-06-10T21:50:33.326Z,2.63
2019-06-10T21:53:02.959Z,2.20
2019-06-10T21:55:33.085Z,2.10
2019-06-10T21:58:03.760Z,2.40
2019-06-10T22:00:51.922Z,2.63
2019-06-10T22:03:07.278Z,2.90
2019-06-10T22:05:35.849Z,2.63
2019-06-10T22:08:04.451Z,2.13
2019-06-10T22:10:33.548Z,2.80
2019-06-10T22:13:03.252Z,2.20
2019-06-10T22:15:33.313Z,2.83
2019-06-10T22:18:02.369Z,2.37
2019-06-10T22:20:32.477Z,2.67
2019-06-10T22:23:02.664Z,2.67
2019-06-10T22:25:32.791Z,1.90
2019-06-10T22:28:02.767Z,2.23
2019-06-10T22:30:32.084Z,1.77
2019-06-10T22:33:03.132Z,2.10
2019-06-10T22:35:31.095Z,2.57
2019-06-10T22:37:59.551Z,1.93
2019-06-10T22:40:28.045Z,2.40
2019-06-10T22:42:56.798Z,2.00
2019-06-10T22:45:25.296Z,2.10
2019-06-10T22:47:55.289Z,1.67
2019-06-10T22:50:24.224Z,2.03
2019-06-10T22:52:55.527Z,1.77
2019-06-10T22:55:22.967Z,2.23
2019-06-10T22:57:54.677Z,1.80
2019-06-10T23:00:22.357Z,2.10
2019-06-10T23:02:53.321Z,1.50
2019-06-10T23:05:23.271Z,2.23
2019-06-10T23:07:53.276Z,1.47
2019-06-10T23:10:22.839Z,1.63
2019-06-10T23:12:54.768Z,2.27
2019-06-10T23:15:23.537Z,2.17
2019-06-10T23:17:55.263Z,1.40
2019-06-10T23:20:22.234Z,1.43
2019-06-10T23:22:55.275Z,1.70
2019-06-10T23:25:22.092Z,1.17
2019-06-10T23:27:53.193Z,1.50
2019-06-10T23:30:22.378Z,1.43
2019-06-10T23:32:54.474Z,1.30
2019-06-10T23:35:23.107Z,1.43
2019-06-10T23:37:55.126Z,1.50
2019-06-10T23:40:23.382Z,1.67
2019-06-10T23:42:53.124Z,1.97
2019-06-10T23:45:22.489Z,1.30
2019-06-10T23:47:52.876Z,1.83
2019-06-10T23:50:22.595Z,1.20
2019-06-10T23:52:54.178Z,1.60
2019-06-10T23:55:22.754Z,1.17
2019-06-10T23:57:53.014Z,1.73
